Time;durP1;ratioP1;P1;durP2;ratioP2;P2;SDS_P1;SDS_P2;PMS_P1;PMS_P2;Temp;Humidity;BMP_temperature;BMP_pressure;BME280_temperature;BME280_humidity;BME280_pressure;Samples;Min_cycle;Max_cycle;Signal;HPM_P1;HPM_P2
2023/12/06 00:01:21;;;;;;;131.60;58.37;;;1.70;99.90;;;;;;4954455;28;20451;-90
2023/12/06 00:03:47;;;;;;;186.23;64.37;;;1.50;99.90;;;;;;4953777;28;20420;-90
2023/12/06 00:06:12;;;;;;;191.60;63.67;;;1.50;99.90;;;;;;4970498;28;20595;-88
2023/12/06 00:08:38;;;;;;;151.52;58.53;;;1.50;99.90;;;;;;4954449;28;20440;-89
2023/12/06 00:11:03;;;;;;;139.30;62.03;;;1.50;99.90;;;;;;4947001;29;20747;-89
2023/12/06 00:13:29;;;;;;;192.07;64.73;;;1.50;99.90;;;;;;4935403;29;20476;-90
2023/12/06 00:15:55;;;;;;;162.60;61.00;;;1.50;99.90;;;;;;4934896;29;20425;-90
2023/12/06 00:18:21;;;;;;;211.05;68.38;;;1.50;99.90;;;;;;4935099;29;21036;-91
2023/12/06 00:20:46;;;;;;;131.32;57.33;;;1.50;99.90;;;;;;4950530;29;20448;-89
2023/12/06 00:23:12;;;;;;;159.23;63.60;;;1.50;99.90;;;;;;4935120;29;20429;-88
2023/12/06 00:25:38;;;;;;;118.33;59.40;;;1.50;99.90;;;;;;4934152;29;20428;-88
2023/12/06 00:28:03;;;;;;;110.40;55.83;;;1.60;99.90;;;;;;4934706;29;20511;-89
2023/12/06 00:30:29;;;;;;;150.60;63.00;;;1.50;99.90;;;;;;4949996;29;20469;-89
2023/12/06 00:32:55;;;;;;;114.32;57.35;;;1.50;99.90;;;;;;4934163;29;20518;-89
2023/12/06 00:35:21;;;;;;;112.68;57.67;;;1.50;99.90;;;;;;4950623;29;20436;-88
2023/12/06 00:37:46;;;;;;;101.85;54.05;;;1.50;99.90;;;;;;4933599;29;20741;-88
2023/12/06 00:40:12;;;;;;;113.80;56.30;;;1.60;99.90;;;;;;4934265;29;20464;-89
2023/12/06 00:42:38;;;;;;;144.68;57.47;;;1.60;99.90;;;;;;4934708;29;20494;-89
2023/12/06 00:45:04;;;;;;;107.47;55.57;;;1.60;99.90;;;;;;4934696;29;20418;-89
2023/12/06 00:47:29;;;;;;;105.20;53.72;;;1.60;99.90;;;;;;4933667;29;20442;-88
2023/12/06 00:49:55;;;;;;;98.17;52.07;;;1.60;99.90;;;;;;4934100;29;20498;-89
2023/12/06 00:52:21;;;;;;;92.80;52.37;;;1.90;99.90;;;;;;4950233;29;20450;-89
2023/12/06 00:54:48;;;;;;;117.43;54.73;;;1.60;99.90;;;;;;4933797;29;20493;-90
2023/12/06 00:57:14;;;;;;;119.82;55.53;;;1.70;99.90;;;;;;4964363;28;20416;-89
2023/12/06 00:59:40;;;;;;;110.32;53.45;;;1.60;99.90;;;;;;4952452;28;20411;-89
2023/12/06 01:02:06;;;;;;;138.93;55.88;;;1.70;99.90;;;;;;4953457;28;20923;-89
2023/12/06 01:04:35;;;;;;;99.07;52.57;;;1.70;99.90;;;;;;4953310;28;20444;-90
2023/12/06 01:07:00;;;;;;;99.57;53.20;;;1.90;99.90;;;;;;4952708;28;20493;-89
2023/12/06 01:09:26;;;;;;;130.82;55.47;;;1.70;99.90;;;;;;4953604;28;20759;-89
2023/12/06 01:11:52;;;;;;;120.60;54.00;;;1.90;99.90;;;;;;4968956;28;20412;-89
2023/12/06 01:14:18;;;;;;;82.60;51.10;;;1.90;99.90;;;;;;4953470;28;20416;-89
2023/12/06 01:16:43;;;;;;;83.95;48.60;;;1.70;99.90;;;;;;4951449;28;20436;-88
2023/12/06 01:19:09;;;;;;;71.10;45.80;;;1.80;99.90;;;;;;4952986;28;20482;-90
2023/12/06 01:21:35;;;;;;;84.65;48.38;;;1.80;99.90;;;;;;4953473;28;20503;-90
2023/12/06 01:24:00;;;;;;;66.97;45.45;;;1.80;99.90;;;;;;4952913;28;20424;-89
2023/12/06 01:26:26;;;;;;;75.40;46.60;;;1.90;99.90;;;;;;4946260;29;20477;-89
2023/12/06 01:28:52;;;;;;;86.83;49.60;;;1.80;99.90;;;;;;4933242;29;20834;-90
2023/12/06 01:31:17;;;;;;;88.93;49.05;;;1.80;99.90;;;;;;4934198;29;20449;-91
2023/12/06 01:33:43;;;;;;;83.25;49.47;;;1.90;99.90;;;;;;4932856;29;20418;-90
2023/12/06 01:36:09;;;;;;;69.95;46.88;;;1.90;99.90;;;;;;4944930;28;20924;-91
2023/12/06 01:38:34;;;;;;;73.70;47.17;;;1.80;99.90;;;;;;4952491;28;20412;-91
2023/12/06 01:41:00;;;;;;;62.37;41.87;;;1.90;99.90;;;;;;4952777;28;20439;-90
2023/12/06 01:43:25;;;;;;;67.68;43.92;;;1.90;99.90;;;;;;4968249;28;20413;-90
2023/12/06 01:45:51;;;;;;;98.07;48.30;;;1.90;99.90;;;;;;4952453;28;20440;-90
2023/12/06 01:48:18;;;;;;;69.10;45.27;;;1.90;99.90;;;;;;4952803;28;21024;-91
2023/12/06 01:50:46;;;;;;;78.45;44.97;;;2.50;99.90;;;;;;4967867;28;20472;-90
2023/12/06 01:53:11;;;;;;;95.35;50.00;;;2.00;99.90;;;;;;4952817;28;20950;-91
2023/12/06 01:55:38;;;;;;;89.17;48.57;;;1.90;99.90;;;;;;4968099;28;20459;-90
2023/12/06 01:58:03;;;;;;;71.07;45.13;;;2.00;99.90;;;;;;4952496;28;21361;-91
2023/12/06 02:00:30;;;;;;;69.88;44.30;;;2.00;99.90;;;;;;4952137;28;20428;-90
2023/12/06 02:02:56;;;;;;;78.18;47.40;;;2.00;99.90;;;;;;4952285;28;20576;-90
2023/12/06 02:05:22;;;;;;;74.83;44.37;;;2.10;99.90;;;;;;4952240;28;20479;-90
2023/12/06 02:07:50;;;;;;;67.20;44.28;;;2.20;99.90;;;;;;4951867;28;20465;-90
2023/12/06 02:10:16;;;;;;;62.83;42.88;;;2.00;99.90;;;;;;4952394;28;20412;-92
2023/12/06 02:12:41;;;;;;;75.40;45.37;;;2.00;99.90;;;;;;4951601;28;20495;-90
2023/12/06 02:15:08;;;;;;;83.80;48.87;;;2.00;99.90;;;;;;4952294;28;20415;-91
2023/12/06 02:17:34;;;;;;;108.53;49.80;;;2.00;99.90;;;;;;4952413;28;20908;-90
2023/12/06 02:20:01;;;;;;;92.83;48.73;;;2.10;99.90;;;;;;4968099;28;20480;-91
2023/12/06 02:22:28;;;;;;;86.20;48.38;;;2.00;99.90;;;;;;4951842;28;20878;-90
2023/12/06 02:24:57;;;;;;;91.30;48.75;;;2.00;99.90;;;;;;4952023;28;20490;-91
2023/12/06 02:27:23;;;;;;;85.40;47.35;;;1.90;99.90;;;;;;4961149;28;20465;-91
2023/12/06 02:29:49;;;;;;;83.72;46.72;;;2.00;99.90;;;;;;4965389;28;20431;-89
2023/12/06 02:32:15;;;;;;;90.00;46.45;;;1.90;99.90;;;;;;4951754;28;20412;-89
2023/12/06 02:34:42;;;;;;;111.67;52.63;;;1.90;99.90;;;;;;4943914;29;20410;-91
2023/12/06 02:37:12;;;;;;;96.07;49.00;;;1.90;99.90;;;;;;4932949;28;20765;-89
2023/12/06 02:39:43;;;;;;;84.63;46.88;;;2.00;99.90;;;;;;4964061;28;20416;-90
2023/12/06 02:42:09;;;;;;;113.47;48.88;;;1.70;99.90;;;;;;4951552;28;20416;-89
2023/12/06 02:44:35;;;;;;;172.15;57.95;;;1.90;99.90;;;;;;4951947;28;20408;-90
2023/12/06 02:47:01;;;;;;;112.13;51.05;;;1.90;99.90;;;;;;4951532;28;20436;-89
2023/12/06 02:49:27;;;;;;;82.32;46.67;;;1.90;99.90;;;;;;4951520;28;20648;-89
2023/12/06 02:51:53;;;;;;;200.97;61.90;;;1.80;99.90;;;;;;4951035;28;20412;-88
2023/12/06 02:54:19;;;;;;;117.17;51.17;;;1.90;99.90;;;;;;4946438;29;20418;-89
2023/12/06 02:56:44;;;;;;;95.53;49.80;;;1.90;99.90;;;;;;4948345;28;20418;-88
2023/12/06 02:59:10;;;;;;;106.27;52.53;;;1.90;99.90;;;;;;4931825;29;20918;-89
2023/12/06 03:01:35;;;;;;;107.50;52.40;;;1.90;99.90;;;;;;4932186;29;20429;-88
2023/12/06 03:04:01;;;;;;;265.30;68.15;;;1.90;99.90;;;;;;4932106;28;20425;-90
2023/12/06 03:06:27;;;;;;;169.87;61.30;;;1.90;99.90;;;;;;4932373;29;20409;-88
2023/12/06 03:08:52;;;;;;;105.70;50.97;;;1.90;99.90;;;;;;4931546;29;20437;-89
2023/12/06 03:11:18;;;;;;;97.05;49.85;;;1.80;99.90;;;;;;4932234;29;20418;-90
2023/12/06 03:13:44;;;;;;;169.60;61.03;;;2.00;99.90;;;;;;4931824;29;20501;-89
2023/12/06 03:16:09;;;;;;;127.53;52.03;;;1.90;99.90;;;;;;4932209;29;20496;-88
2023/12/06 03:18:35;;;;;;;81.13;47.47;;;1.90;99.90;;;;;;4931909;29;20544;-88
2023/12/06 03:21:00;;;;;;;130.10;53.13;;;2.00;99.90;;;;;;4931555;29;20417;-89
2023/12/06 03:23:26;;;;;;;196.55;62.63;;;2.00;99.90;;;;;;4948190;28;20822;-88
2023/12/06 03:25:52;;;;;;;92.57;48.80;;;2.00;99.90;;;;;;4946789;29;20768;-88
2023/12/06 03:28:18;;;;;;;167.23;58.70;;;2.00;99.90;;;;;;4932053;29;20461;-89
2023/12/06 03:30:43;;;;;;;94.97;50.23;;;2.00;99.90;;;;;;4931482;29;20894;-89
2023/12/06 03:33:09;;;;;;;96.93;49.47;;;2.00;99.90;;;;;;4931873;29;20409;-87
2023/12/06 03:35:34;;;;;;;100.60;49.73;;;2.00;99.90;;;;;;4931787;29;20493;-89
2023/12/06 03:38:00;;;;;;;100.20;48.75;;;2.00;99.90;;;;;;4931231;29;20450;-86
2023/12/06 03:40:26;;;;;;;172.43;59.25;;;2.00;99.90;;;;;;4933857;29;20954;-89
2023/12/06 03:42:52;;;;;;;80.47;45.67;;;2.00;99.90;;;;;;4950914;29;20916;-89
2023/12/06 03:45:17;;;;;;;88.83;49.10;;;2.00;99.90;;;;;;4937586;28;20462;-88
2023/12/06 03:47:43;;;;;;;90.33;48.40;;;2.00;99.90;;;;;;4953910;28;20961;-88
2023/12/06 03:50:09;;;;;;;162.97;55.63;;;2.10;99.90;;;;;;4954221;28;20423;-88
2023/12/06 03:52:34;;;;;;;83.50;45.37;;;2.30;99.90;;;;;;4941628;29;20422;-90
2023/12/06 03:55:00;;;;;;;92.78;46.45;;;2.00;99.90;;;;;;4935338;29;20897;-88
2023/12/06 03:57:26;;;;;;;85.38;44.55;;;2.10;99.90;;;;;;4935168;29;20412;-88
2023/12/06 03:59:52;;;;;;;82.05;44.55;;;2.00;99.90;;;;;;4934690;29;20410;-88
2023/12/06 04:02:18;;;;;;;179.43;59.55;;;2.10;99.90;;;;;;4934622;29;20433;-89
2023/12/06 04:04:44;;;;;;;114.28;48.75;;;2.10;99.90;;;;;;4934198;29;20473;-89
2023/12/06 04:07:10;;;;;;;111.50;53.20;;;2.10;99.90;;;;;;4934827;29;20426;-89
2023/12/06 04:09:36;;;;;;;167.80;59.70;;;2.60;99.90;;;;;;4934684;29;20412;-88
2023/12/06 04:12:02;;;;;;;121.07;53.63;;;2.30;99.90;;;;;;4934950;29;20496;-90
2023/12/06 04:14:27;;;;;;;84.00;45.07;;;2.10;99.90;;;;;;4951210;29;20473;-90
2023/12/06 04:16:53;;;;;;;134.87;51.93;;;2.10;99.90;;;;;;4935003;29;20418;-89
2023/12/06 04:19:19;;;;;;;132.23;52.53;;;2.20;99.90;;;;;;4935185;29;20422;-90
2023/12/06 04:21:45;;;;;;;112.90;52.28;;;2.20;99.90;;;;;;4935063;29;20511;-89
2023/12/06 04:24:10;;;;;;;77.07;43.45;;;2.00;99.90;;;;;;4934777;29;20426;-90
2023/12/06 04:26:36;;;;;;;80.97;45.67;;;2.40;99.90;;;;;;4934465;29;20417;-90
2023/12/06 04:29:02;;;;;;;112.78;49.83;;;2.20;99.90;;;;;;4935195;29;20484;-89
2023/12/06 04:31:27;;;;;;;69.60;41.78;;;2.20;99.90;;;;;;4934182;29;20418;-90
2023/12/06 04:33:53;;;;;;;114.63;51.23;;;2.20;99.90;;;;;;4934211;29;20410;-90
2023/12/06 04:36:19;;;;;;;98.07;47.20;;;2.20;99.90;;;;;;4934790;29;20765;-91
2023/12/06 04:38:45;;;;;;;77.07;44.47;;;2.20;99.90;;;;;;4934917;29;20917;-91
2023/12/06 04:41:11;;;;;;;74.50;45.63;;;2.20;99.90;;;;;;4934800;29;20418;-92
2023/12/06 04:43:36;;;;;;;93.37;49.67;;;2.20;99.90;;;;;;4934440;29;20972;-91
2023/12/06 04:46:02;;;;;;;184.40;57.38;;;2.20;99.90;;;;;;4934876;29;20468;-88
2023/12/06 04:48:28;;;;;;;117.65;50.63;;;2.20;99.90;;;;;;4935309;28;20983;-92
2023/12/06 04:50:53;;;;;;;244.30;61.65;;;2.20;99.90;;;;;;4953226;28;20416;-92
2023/12/06 04:53:19;;;;;;;169.25;57.85;;;2.50;99.90;;;;;;4953507;28;20439;-90
2023/12/06 04:55:45;;;;;;;82.27;45.63;;;2.30;99.90;;;;;;4953300;28;20784;-91
2023/12/06 04:58:11;;;;;;;58.03;40.67;;;2.30;99.90;;;;;;4946702;29;20453;-91
2023/12/06 05:00:37;;;;;;;62.50;40.38;;;2.20;99.90;;;;;;4933082;29;20654;-91
2023/12/06 05:03:03;;;;;;;54.78;37.78;;;2.30;99.90;;;;;;4934059;29;20453;-91
2023/12/06 05:05:29;;;;;;;52.15;37.47;;;2.30;99.90;;;;;;4933642;29;20551;-92
2023/12/06 05:07:57;;;;;;;60.75;39.45;;;2.40;99.90;;;;;;4933965;29;20465;-91
2023/12/06 05:10:23;;;;;;;67.33;39.30;;;2.50;99.90;;;;;;4934004;29;20452;-91
2023/12/06 05:12:49;;;;;;;45.73;33.97;;;2.40;99.90;;;;;;4934285;29;20438;-92
2023/12/06 05:15:14;;;;;;;43.03;33.47;;;2.30;99.90;;;;;;4934001;29;20492;-91
2023/12/06 05:17:40;;;;;;;43.30;33.45;;;2.50;99.90;;;;;;4932899;29;20754;-92
2023/12/06 05:20:07;;;;;;;45.97;34.47;;;2.50;99.90;;;;;;4933757;29;20421;-92
2023/12/06 05:22:33;;;;;;;60.38;38.13;;;2.50;99.90;;;;;;4941848;28;20404;-92
2023/12/06 05:24:59;;;;;;;52.10;36.10;;;2.80;99.90;;;;;;4952863;28;20433;-92
2023/12/06 05:27:25;;;;;;;33.55;28.38;;;2.70;99.90;;;;;;4968376;28;20471;-93
2023/12/06 05:29:51;;;;;;;34.55;28.50;;;2.60;99.90;;;;;;4968527;28;20759;-92
2023/12/06 05:32:17;;;;;;;38.35;30.25;;;2.60;99.90;;;;;;4938656;29;20426;-92
2023/12/06 05:34:42;;;;;;;45.45;33.55;;;2.90;99.90;;;;;;4941571;28;20470;-91
2023/12/06 05:37:08;;;;;;;34.70;27.40;;;2.80;99.90;;;;;;4964061;28;20449;-92
2023/12/06 05:39:36;;;;;;;32.72;27.67;;;2.70;99.90;;;;;;4948442;29;20484;-93
2023/12/06 05:42:03;;;;;;;31.23;24.30;;;2.60;99.90;;;;;;4949448;29;20707;-92
2023/12/06 05:44:30;;;;;;;31.85;25.77;;;2.70;99.90;;;;;;4933351;29;20414;-92
2023/12/06 05:46:55;;;;;;;27.67;23.53;;;2.60;99.90;;;;;;4933756;29;20949;-91
2023/12/06 05:49:22;;;;;;;25.70;22.87;;;2.90;99.90;;;;;;4933009;29;20493;-93
2023/12/06 05:51:48;;;;;;;25.63;21.67;;;3.00;99.90;;;;;;4933316;29;20417;-91
2023/12/06 05:54:14;;;;;;;25.63;21.67;;;2.70;99.90;;;;;;4933536;29;20414;-91
2023/12/06 05:56:40;;;;;;;32.83;24.77;;;2.80;99.90;;;;;;4949088;29;20425;-90
2023/12/06 05:59:06;;;;;;;27.57;22.90;;;2.90;99.90;;;;;;4949263;29;20477;-91
2023/12/06 06:01:31;;;;;;;24.13;20.37;;;3.00;99.90;;;;;;4932653;28;20952;-89
2023/12/06 06:03:57;;;;;;;24.50;21.27;;;2.80;99.90;;;;;;4933011;29;20970;-89
2023/12/06 06:06:23;;;;;;;21.73;19.42;;;2.80;99.90;;;;;;4933282;29;20731;-90
2023/12/06 06:08:48;;;;;;;26.80;21.67;;;2.80;99.90;;;;;;4932874;29;20426;-90
2023/12/06 06:11:14;;;;;;;24.43;21.80;;;2.80;99.90;;;;;;4944985;28;20836;-90
2023/12/06 06:13:39;;;;;;;24.77;22.07;;;2.80;99.90;;;;;;4952614;28;20404;-89
2023/12/06 06:16:06;;;;;;;30.98;25.02;;;2.90;99.90;;;;;;4952018;28;20599;-90
2023/12/06 06:18:31;;;;;;;35.97;27.70;;;2.90;99.90;;;;;;4951087;28;20412;-90
2023/12/06 06:20:58;;;;;;;28.63;23.93;;;2.90;99.90;;;;;;4952109;28;20471;-89
2023/12/06 06:23:24;;;;;;;28.95;25.05;;;2.90;99.90;;;;;;4951911;28;20460;-89
2023/12/06 06:25:50;;;;;;;27.87;23.00;;;2.90;99.90;;;;;;4951935;28;20930;-89
2023/12/06 06:28:16;;;;;;;23.57;21.00;;;2.90;99.90;;;;;;4951768;28;20436;-89
2023/12/06 06:30:41;;;;;;;25.02;22.33;;;2.90;99.90;;;;;;4968129;28;20935;-90
2023/12/06 06:33:07;;;;;;;24.33;21.73;;;2.90;99.90;;;;;;4934030;29;20418;-89
2023/12/06 06:35:33;;;;;;;28.48;24.52;;;3.00;99.90;;;;;;4938079;28;21011;-88
2023/12/06 06:37:59;;;;;;;31.67;25.30;;;3.00;99.90;;;;;;4946699;28;20436;-89
2023/12/06 06:40:24;;;;;;;39.67;29.80;;;3.00;99.90;;;;;;4967546;28;20935;-88
2023/12/06 06:42:50;;;;;;;43.10;32.17;;;3.00;99.90;;;;;;4951686;28;20501;-89
2023/12/06 06:45:15;;;;;;;54.65;34.30;;;3.00;99.90;;;;;;4951234;28;20420;-89
2023/12/06 06:47:41;;;;;;;47.83;34.20;;;2.90;99.90;;;;;;4951274;28;20828;-89
2023/12/06 06:50:07;;;;;;;54.27;33.77;;;2.90;99.90;;;;;;4951533;28;20420;-88
2023/12/06 06:52:36;;;;;;;53.03;34.50;;;2.90;99.90;;;;;;4946573;29;20465;-89
2023/12/06 06:55:02;;;;;;;59.13;35.65;;;2.90;99.90;;;;;;4947917;29;20430;-89
2023/12/06 06:57:28;;;;;;;53.37;33.63;;;2.90;99.90;;;;;;4944885;29;20437;-89
2023/12/06 06:59:53;;;;;;;50.80;35.00;;;2.90;99.90;;;;;;4948094;29;20437;-89
2023/12/06 07:02:19;;;;;;;49.97;34.15;;;2.80;99.90;;;;;;4932059;29;20429;-89
2023/12/06 07:04:45;;;;;;;56.22;36.53;;;2.90;99.90;;;;;;4948126;29;20424;-89
2023/12/06 07:07:11;;;;;;;70.83;39.97;;;2.80;99.90;;;;;;4963942;28;20438;-89
2023/12/06 07:09:37;;;;;;;56.17;37.23;;;2.80;99.90;;;;;;4948507;29;20425;-89
2023/12/06 07:12:03;;;;;;;53.63;34.80;;;2.80;99.90;;;;;;4947168;29;20414;-88
2023/12/06 07:14:29;;;;;;;42.75;31.63;;;2.80;99.90;;;;;;4948193;28;20424;-89
2023/12/06 07:16:55;;;;;;;40.67;29.63;;;2.80;99.90;;;;;;4935353;29;20417;-89
2023/12/06 07:19:21;;;;;;;33.00;26.02;;;2.80;99.90;;;;;;4950966;29;20449;-89
2023/12/06 07:21:48;;;;;;;30.55;24.77;;;2.80;99.90;;;;;;4951375;29;20412;-87
2023/12/06 07:24:13;;;;;;;31.80;25.60;;;2.90;99.90;;;;;;4951177;29;20437;-88
2023/12/06 07:26:39;;;;;;;34.43;26.33;;;2.90;99.90;;;;;;4950540;29;20421;-88
2023/12/06 07:29:05;;;;;;;30.00;24.20;;;2.90;99.90;;;;;;4951355;29;20931;-88
2023/12/06 07:31:31;;;;;;;32.60;24.87;;;2.90;99.90;;;;;;4950834;29;20402;-89
2023/12/06 07:33:57;;;;;;;30.03;22.13;;;3.00;99.90;;;;;;4951009;29;20410;-89
2023/12/06 07:36:23;;;;;;;25.90;21.35;;;2.90;99.90;;;;;;4950869;29;20402;-87
2023/12/06 07:38:49;;;;;;;28.90;22.20;;;3.00;99.90;;;;;;4950856;29;20951;-89
2023/12/06 07:41:15;;;;;;;26.08;20.75;;;3.00;99.90;;;;;;4950899;29;20425;-90
2023/12/06 07:43:40;;;;;;;29.33;21.95;;;2.90;99.90;;;;;;4938667;28;20498;-90
2023/12/06 07:46:06;;;;;;;40.10;27.23;;;3.00;99.90;;;;;;4954141;28;20516;-88
2023/12/06 07:48:33;;;;;;;29.73;24.07;;;3.00;99.90;;;;;;4962199;28;20432;-89
2023/12/06 07:50:59;;;;;;;36.28;25.95;;;3.00;99.90;;;;;;4942398;28;20425;-89
2023/12/06 07:53:26;;;;;;;41.03;27.42;;;3.00;99.90;;;;;;4957792;28;20500;-89
2023/12/06 07:55:55;;;;;;;25.92;21.50;;;3.00;99.90;;;;;;4962619;28;20760;-88
2023/12/06 07:58:21;;;;;;;35.65;25.95;;;2.90;99.90;;;;;;4953494;28;21046;-88
2023/12/06 08:00:47;;;;;;;28.15;22.83;;;3.00;99.90;;;;;;4953159;28;20459;-89
2023/12/06 08:03:12;;;;;;;39.30;26.83;;;3.00;99.90;;;;;;4954232;28;20438;-88
2023/12/06 08:05:38;;;;;;;33.97;24.88;;;3.00;99.90;;;;;;4969495;28;20483;-88
2023/12/06 08:08:05;;;;;;;33.00;24.67;;;3.00;99.90;;;;;;4969761;28;20436;-89
2023/12/06 08:10:33;;;;;;;31.42;25.30;;;3.00;99.90;;;;;;4953093;28;20419;-89
2023/12/06 08:12:59;;;;;;;26.20;21.88;;;3.00;99.90;;;;;;4953656;28;20439;-87
2023/12/06 08:15:26;;;;;;;28.60;22.67;;;3.10;99.90;;;;;;4953652;28;21433;-88
2023/12/06 08:17:52;;;;;;;29.27;23.50;;;3.10;99.90;;;;;;4969213;28;20470;-88
2023/12/06 08:20:17;;;;;;;23.38;18.67;;;3.30;99.90;;;;;;4969278;28;20416;-87
2023/12/06 08:22:43;;;;;;;24.70;20.80;;;3.10;99.90;;;;;;4953322;28;20412;-88
2023/12/06 08:25:11;;;;;;;25.60;20.47;;;3.10;99.90;;;;;;4968823;28;20499;-88
2023/12/06 08:27:37;;;;;;;22.17;18.10;;;3.20;99.90;;;;;;4969343;28;20440;-90
2023/12/06 08:30:03;;;;;;;24.60;20.57;;;3.20;99.90;;;;;;4969204;28;20416;-88
2023/12/06 08:32:29;;;;;;;25.92;20.77;;;3.20;99.90;;;;;;4945289;29;20410;-90
2023/12/06 08:34:54;;;;;;;30.70;23.65;;;3.20;99.90;;;;;;4934331;29;20429;-89
2023/12/06 08:37:20;;;;;;;26.87;20.27;;;3.20;99.90;;;;;;4934597;29;20410;-88
2023/12/06 08:39:47;;;;;;;27.57;21.17;;;3.30;99.90;;;;;;4963841;28;20420;-88
2023/12/06 08:42:14;;;;;;;26.25;20.33;;;3.20;99.90;;;;;;4968562;28;20567;-88
2023/12/06 08:44:41;;;;;;;27.17;22.30;;;3.50;99.90;;;;;;4968857;28;20808;-89
2023/12/06 08:47:07;;;;;;;29.88;23.30;;;3.20;99.90;;;;;;4952618;28;20436;-88
2023/12/06 08:49:34;;;;;;;24.20;20.55;;;3.20;99.90;;;;;;4952252;28;20414;-88
2023/12/06 08:52:00;;;;;;;25.27;21.35;;;3.30;99.90;;;;;;4952900;28;20479;-88
2023/12/06 08:54:26;;;;;;;26.65;21.00;;;3.50;99.90;;;;;;4952301;28;20448;-88
2023/12/06 08:56:51;;;;;;;26.42;21.60;;;3.30;99.90;;;;;;4942854;29;20806;-88
2023/12/06 08:59:17;;;;;;;34.43;24.67;;;3.50;99.90;;;;;;4933082;29;20425;-88
2023/12/06 09:01:43;;;;;;;27.40;23.83;;;3.40;99.90;;;;;;4932788;28;20529;-89
2023/12/06 09:04:09;;;;;;;27.90;23.63;;;3.40;99.90;;;;;;4952771;28;20408;-89
2023/12/06 09:06:37;;;;;;;32.63;25.63;;;3.40;99.90;;;;;;4952405;28;20506;-88
2023/12/06 09:09:04;;;;;;;31.00;24.65;;;3.40;99.90;;;;;;4952644;28;20498;-88
2023/12/06 09:11:30;;;;;;;30.60;24.23;;;3.40;99.90;;;;;;4951676;28;20415;-89
2023/12/06 09:13:56;;;;;;;29.60;24.67;;;3.60;99.90;;;;;;4952680;28;20412;-89
2023/12/06 09:16:21;;;;;;;35.03;27.08;;;3.60;99.90;;;;;;4952137;28;20408;-87
2023/12/06 09:18:47;;;;;;;27.50;23.70;;;3.40;99.90;;;;;;4968692;28;20432;-88
2023/12/06 09:21:13;;;;;;;35.87;26.80;;;3.40;99.90;;;;;;4940562;29;20421;-87
2023/12/06 09:23:40;;;;;;;28.35;24.05;;;3.40;99.90;;;;;;4932651;29;20417;-87
2023/12/06 09:26:06;;;;;;;28.43;24.63;;;3.50;99.90;;;;;;4931701;29;21013;-88
2023/12/06 09:28:31;;;;;;;32.50;26.03;;;3.50;99.90;;;;;;4932250;29;20428;-88
2023/12/06 09:30:57;;;;;;;33.13;25.53;;;3.50;99.90;;;;;;4932458;29;20455;-88
2023/12/06 09:33:22;;;;;;;40.42;29.27;;;3.50;99.90;;;;;;4948366;29;20433;-88
2023/12/06 09:35:48;;;;;;;28.23;23.23;;;3.50;99.90;;;;;;4932695;29;20925;-88
2023/12/06 09:38:14;;;;;;;27.83;23.53;;;3.50;99.90;;;;;;4937593;28;20420;-87
2023/12/06 09:40:40;;;;;;;32.80;26.00;;;3.50;99.90;;;;;;4939699;28;20420;-88
2023/12/06 09:43:05;;;;;;;30.92;23.63;;;3.60;99.90;;;;;;4939823;28;20810;-89
2023/12/06 09:45:31;;;;;;;24.52;21.67;;;3.60;99.90;;;;;;4943620;28;20391;-89
2023/12/06 09:47:57;;;;;;;25.20;21.65;;;3.60;99.90;;;;;;4941798;28;20438;-89
2023/12/06 09:50:27;;;;;;;30.50;23.65;;;3.70;99.90;;;;;;4941425;28;20420;-88
2023/12/06 09:52:54;;;;;;;22.55;20.08;;;3.70;99.90;;;;;;4957499;28;20415;-89
2023/12/06 09:55:24;;;;;;;21.75;18.08;;;3.70;99.90;;;;;;4954300;28;20402;-88
2023/12/06 09:57:54;;;;;;;25.73;20.67;;;3.70;99.90;;;;;;4950968;28;20478;-88
2023/12/06 10:00:20;;;;;;;18.75;16.45;;;3.90;99.90;;;;;;4967622;28;20820;-88
2023/12/06 10:02:52;;;;;;;19.33;17.40;;;3.70;99.90;;;;;;4950875;28;20499;-88
2023/12/06 10:05:17;;;;;;;15.30;13.83;;;3.70;99.90;;;;;;4964359;28;20420;-89
2023/12/06 10:07:44;;;;;;;15.03;12.43;;;3.70;99.90;;;;;;4967602;28;20432;-88
2023/12/06 10:10:19;;;;;;;14.70;13.13;;;3.90;99.90;;;;;;4967590;28;20412;-88
2023/12/06 10:12:53;;;;;;;16.20;12.68;;;4.10;99.90;;;;;;4955801;28;20830;-89
2023/12/06 10:15:19;;;;;;;14.60;13.10;;;3.80;99.90;;;;;;4931878;29;20538;-90
2023/12/06 10:17:46;;;;;;;14.93;13.00;;;4.10;99.90;;;;;;4933179;28;20400;-88
2023/12/06 10:20:13;;;;;;;16.33;14.40;;;4.00;99.90;;;;;;4935545;28;20410;-88
2023/12/06 10:22:39;;;;;;;17.15;13.70;;;3.90;99.90;;;;;;4950061;28;21232;-89
2023/12/06 10:25:08;;;;;;;17.23;15.20;;;3.80;99.90;;;;;;4934441;29;20406;-88
2023/12/06 10:27:35;;;;;;;17.23;14.82;;;4.10;99.90;;;;;;4941355;28;20431;-88
2023/12/06 10:30:03;;;;;;;15.70;13.40;;;3.90;99.90;;;;;;4949601;28;20919;-87
2023/12/06 10:32:30;;;;;;;12.95;11.65;;;3.90;99.90;;;;;;4964038;28;20507;-88
2023/12/06 10:34:59;;;;;;;11.70;10.48;;;3.90;99.90;;;;;;4938492;28;20408;-89
2023/12/06 10:37:26;;;;;;;12.73;11.37;;;4.00;99.90;;;;;;4965429;28;20416;-88
2023/12/06 10:40:00;;;;;;;14.43;12.48;;;4.00;99.90;;;;;;4937357;29;20417;-89
2023/12/06 10:42:33;;;;;;;17.02;13.75;;;4.00;99.90;;;;;;4939581;28;20423;-88
2023/12/06 10:45:01;;;;;;;14.05;12.10;;;4.00;99.90;;;;;;4960088;28;20412;-88
2023/12/06 10:47:28;;;;;;;15.32;13.32;;;4.00;99.90;;;;;;4965576;28;20451;-88
2023/12/06 10:49:56;;;;;;;14.10;12.68;;;4.10;99.90;;;;;;4968928;28;20447;-87
2023/12/06 10:52:22;;;;;;;16.13;13.70;;;4.10;99.90;;;;;;4937466;29;20410;-89
2023/12/06 10:54:50;;;;;;;18.75;16.70;;;4.10;99.90;;;;;;4945620;28;20467;-89
2023/12/06 10:57:17;;;;;;;20.10;17.07;;;4.10;99.90;;;;;;4944583;29;20922;-88
2023/12/06 10:59:43;;;;;;;17.95;15.75;;;4.10;99.90;;;;;;4936249;28;20778;-88
2023/12/06 11:02:12;;;;;;;24.02;18.63;;;4.10;99.90;;;;;;4952715;28;20412;-87
2023/12/06 11:05:03;;;;;;;20.25;17.58;;;4.10;99.90;;;;;;4935370;29;20414;-88
2023/12/06 11:07:55;;;;;;;21.92;16.90;;;4.10;99.90;;;;;;4949985;28;20432;-88
2023/12/06 11:10:41;;;;;;;19.48;16.52;;;4.10;99.90;;;;;;4952935;28;20425;-88
2023/12/06 11:13:43;;;;;;;20.30;17.58;;;4.10;99.90;;;;;;4947253;28;20420;-87
2023/12/06 11:16:18;;;;;;;22.63;18.10;;;4.10;99.90;;;;;;4938981;29;20500;-89
2023/12/06 11:18:50;;;;;;;21.33;17.30;;;4.10;99.90;;;;;;4943782;28;20420;-89
2023/12/06 11:21:19;;;;;;;20.33;16.50;;;4.10;99.90;;;;;;4947266;29;20901;-89
2023/12/06 11:23:48;;;;;;;23.23;18.30;;;4.10;99.90;;;;;;4951599;28;20405;-89
2023/12/06 11:26:15;;;;;;;24.95;17.77;;;4.40;99.90;;;;;;4952012;28;20404;-88
2023/12/06 11:28:42;;;;;;;21.15;17.77;;;4.10;99.90;;;;;;4951615;28;20437;-89
2023/12/06 11:31:13;;;;;;;24.03;17.30;;;4.10;99.90;;;;;;4946213;28;20771;-88
2023/12/06 11:33:38;;;;;;;20.67;17.03;;;4.10;99.90;;;;;;4959293;28;20406;-89
2023/12/06 11:36:04;;;;;;;22.77;17.60;;;4.20;99.90;;;;;;4937428;28;20412;-87
2023/12/06 11:38:34;;;;;;;22.50;18.80;;;4.20;99.90;;;;;;4968123;28;20419;-88
2023/12/06 11:41:01;;;;;;;22.10;17.30;;;4.20;99.90;;;;;;4951920;28;20416;-88
2023/12/06 11:43:32;;;;;;;22.35;17.75;;;4.20;99.90;;;;;;4937952;29;20421;-88
2023/12/06 11:46:13;;;;;;;21.05;17.38;;;4.20;99.90;;;;;;4943630;28;20495;-88
2023/12/06 11:48:47;;;;;;;19.87;17.30;;;4.20;99.90;;;;;;4944493;29;20608;-88
2023/12/06 11:51:24;;;;;;;18.17;15.77;;;4.10;99.90;;;;;;4950864;28;20408;-88
2023/12/06 11:53:51;;;;;;;17.83;15.95;;;4.10;99.90;;;;;;4953358;28;20452;-89
2023/12/06 11:56:24;;;;;;;20.15;17.15;;;4.10;99.90;;;;;;4952883;28;20952;-87
2023/12/06 11:58:50;;;;;;;22.27;18.20;;;4.10;99.90;;;;;;4936141;29;20492;-87
2023/12/06 12:01:18;;;;;;;18.75;15.45;;;4.50;99.90;;;;;;4932754;29;20484;-88
2023/12/06 12:03:46;;;;;;;20.15;16.13;;;4.10;99.90;;;;;;4933833;29;20952;-88
2023/12/06 12:06:12;;;;;;;22.25;17.00;;;4.00;99.90;;;;;;4934198;29;20429;-88
2023/12/06 12:08:39;;;;;;;22.08;18.00;;;4.20;99.90;;;;;;4933108;29;20500;-88
2023/12/06 12:11:07;;;;;;;21.20;17.65;;;4.10;99.90;;;;;;4949140;29;20442;-88
2023/12/06 12:13:37;;;;;;;22.88;18.90;;;4.10;99.90;;;;;;4933495;29;20464;-88
2023/12/06 12:16:03;;;;;;;23.50;19.63;;;4.10;99.90;;;;;;4937299;29;20414;-89
2023/12/06 12:18:29;;;;;;;22.98;18.67;;;4.20;99.90;;;;;;4954222;28;20773;-88
2023/12/06 12:20:58;;;;;;;27.50;20.50;;;4.20;99.90;;;;;;4967490;28;20412;-88
2023/12/06 12:23:28;;;;;;;25.35;20.50;;;4.20;99.90;;;;;;4933378;29;20410;-89
2023/12/06 12:25:54;;;;;;;25.48;21.13;;;4.20;99.90;;;;;;4945929;29;20448;-88
2023/12/06 12:28:21;;;;;;;23.27;20.00;;;4.20;99.90;;;;;;4933367;29;21110;-88
2023/12/06 12:30:54;;;;;;;25.65;20.05;;;4.30;99.90;;;;;;4945140;28;20407;-89
2023/12/06 12:33:20;;;;;;;24.10;18.90;;;4.30;99.90;;;;;;4968671;28;20455;-87